Time;durP1;ratioP1;P1;durP2;ratioP2;P2;SDS_P1;SDS_P2;PMS_P1;PMS_P2;Temp;Humidity;BMP_temperature;BMP_pressure;BME280_temperature;BME280_humidity;BME280_pressure;Samples;Min_cycle;Max_cycle;Signal;HPM_P1;HPM_P2
2022/09/02 00:00:32;;;;;;;;;;;;;;;;;;2132326;27;19931;-42
2022/09/02 00:01:34;;;;;;;;;;;;;;;;;;2132373;27;20326;-45
2022/09/02 00:02:34;;;;;;;;;;;;;;;;;;2132011;27;20014;-45
2022/09/02 00:03:36;;;;;;;;;;;;;;;;;;2132234;27;20356;-46
2022/09/02 00:04:37;;;;;;;;;;;;;;;;;;2132407;27;20018;-44
2022/09/02 00:05:38;;;;;;;;;;;;;;;;;;2131915;27;20014;-45
2022/09/02 00:06:38;;;;;;;;;;;;;;;;;;2131483;27;20015;-45
2022/09/02 00:07:39;;;;;;;;;;;;;;;;;;2132334;27;20294;-44
2022/09/02 00:08:40;;;;;;;;;;;;;;;;;;2132026;27;19930;-44
2022/09/02 00:09:41;;;;;;;;;;;;;;;;;;2132228;27;19945;-45
2022/09/02 00:10:42;;;;;;;;;;;;;;;;;;2132012;27;20063;-44
2022/09/02 00:11:43;;;;;;;;;;;;;;;;;;2125721;27;19927;-44
2022/09/02 00:12:44;;;;;;;;;;;;;;;;;;2126024;27;20014;-45
2022/09/02 00:13:45;;;;;;;;;;;;;;;;;;2132242;27;19923;-44
2022/09/02 00:14:46;;;;;;;;;;;;;;;;;;2132210;27;20496;-44
2022/09/02 00:15:47;;;;;;;;;;;;;;;;;;2132171;27;20005;-45
2022/09/02 00:16:51;;;;;;;;;;;;;;;;;;2132072;27;20014;-45
2022/09/02 00:17:52;;;;;;;;;;;;;;;;;;2132134;27;19923;-44
2022/09/02 00:18:55;;;;;;;;;;;;;;;;;;2132117;27;20010;-45
2022/09/02 00:19:56;;;;;;;;;;;;;;;;;;2131944;27;20047;-45
2022/09/02 00:20:56;;;;;;;;;;;;;;;;;;2132144;27;19970;-45
2022/09/02 00:21:57;;;;;;;;;;;;;;;;;;2131986;27;19983;-44
2022/09/02 00:22:58;;;;;;;;;;;;;;;;;;2132028;27;19966;-45
2022/09/02 00:23:59;;;;;;;;;;;;;;;;;;2131985;27;19974;-44
2022/09/02 00:25:00;;;;;;;;;;;;;;;;;;2132021;27;19923;-44
2022/09/02 00:26:01;;;;;;;;;;;;;;;;;;2131944;27;20026;-44
2022/09/02 00:27:02;;;;;;;;;;;;;;;;;;2132008;27;20072;-45
2022/09/02 00:28:03;;;;;;;;;;;;;;;;;;2132140;27;20063;-43
2022/09/02 00:29:03;;;;;;;;;;;;;;;;;;2131971;27;20138;-44
2022/09/02 00:30:04;;;;;;;;;;;;;;;;;;2131905;27;19973;-45
2022/09/02 00:31:05;;;;;;;;;;;;;;;;;;2131958;27;19923;-45
2022/09/02 00:32:06;;;;;;;;;;;;;;;;;;2131993;27;20268;-44
2022/09/02 00:33:07;;;;;;;;;;;;;;;;;;2132009;27;20340;-42
2022/09/02 00:34:08;;;;;;;;;;;;;;;;;;2132038;27;19927;-42
2022/09/02 00:35:09;;;;;;;;;;;;;;;;;;2131935;27;19971;-42
2022/09/02 00:36:10;;;;;;;;;;;;;;;;;;2131849;27;19930;-42
2022/09/02 00:37:12;;;;;;;;;;;;;;;;;;2131898;27;19954;-42
2022/09/02 00:38:13;;;;;;;;;;;;;;;;;;2132034;27;20060;-42
2022/09/02 00:39:13;;;;;;;;;;;;;;;;;;2131913;27;20443;-43
2022/09/02 00:40:14;;;;;;;;;;;;;;;;;;2132498;27;19973;-44
2022/09/02 00:41:15;;;;;;;;;;;;;;;;;;2131806;27;19930;-44
2022/09/02 00:42:16;;;;;;;;;;;;;;;;;;2131926;27;20331;-44
2022/09/02 00:43:17;;;;;;;;;;;;;;;;;;2131994;27;20019;-45
2022/09/02 00:44:18;;;;;;;;;;;;;;;;;;2131941;27;19923;-44
2022/09/02 00:45:19;;;;;;;;;;;;;;;;;;2131901;27;20013;-44
2022/09/02 00:46:20;;;;;;;;;;;;;;;;;;2131807;27;19923;-44
2022/09/02 00:47:21;;;;;;;;;;;;;;;;;;2132039;27;19923;-45
2022/09/02 00:48:22;;;;;;;;;;;;;;;;;;2131921;27;20022;-45
2022/09/02 00:49:23;;;;;;;;;;;;;;;;;;2131973;27;19923;-44
2022/09/02 00:50:25;;;;;;;;;;;;;;;;;;2132006;27;20001;-45
2022/09/02 00:51:25;;;;;;;;;;;;;;;;;;2131699;27;19923;-47
2022/09/02 00:52:28;;;;;;;;;;;;;;;;;;2131923;27;19983;-44
2022/09/02 00:53:28;;;;;;;;;;;;;;;;;;2132024;27;20013;-42
2022/09/02 00:54:29;;;;;;;;;;;;;;;;;;2131805;27;19974;-43
2022/09/02 00:55:30;;;;;;;;;;;;;;;;;;2131882;27;19927;-43
2022/09/02 00:56:31;;;;;;;;;;;;;;;;;;2131827;27;19990;-43
2022/09/02 00:57:32;;;;;;;;;;;;;;;;;;2131807;27;20001;-43
2022/09/02 00:58:33;;;;;;;;;;;;;;;;;;2131904;27;19923;-42
2022/09/02 00:59:34;;;;;;;;;;;;;;;;;;2131922;27;20475;-43
2022/09/02 01:00:35;;;;;;;;;;;;;;;;;;2131754;27;19935;-43
2022/09/02 01:01:35;;;;;;;;;;;;;;;;;;2131834;27;19968;-43
2022/09/02 01:02:36;;;;;;;;;;;;;;;;;;2131728;27;20097;-42
2022/09/02 01:03:37;;;;;;;;;;;;;;;;;;2131436;27;19934;-44
2022/09/02 01:04:38;;;;;;;;;;;;;;;;;;2131772;27;20013;-44
2022/09/02 01:05:40;;;;;;;;;;;;;;;;;;2131863;27;20002;-44
2022/09/02 01:06:44;;;;;;;;;;;;;;;;;;2131695;27;19954;-46
2022/09/02 01:07:45;;;;;;;;;;;;;;;;;;2132082;27;19974;-44
2022/09/02 01:08:46;;;;;;;;;;;;;;;;;;2131205;27;19953;-42
2022/09/02 01:09:47;;;;;;;;;;;;;;;;;;2131786;27;19938;-42
2022/09/02 01:10:48;;;;;;;;;;;;;;;;;;2131389;27;20436;-43
2022/09/02 01:11:52;;;;;;;;;;;;;;;;;;2124461;27;20022;-43
2022/09/02 01:12:53;;;;;;;;;;;;;;;;;;2123084;28;20039;-43
2022/09/02 01:13:54;;;;;;;;;;;;;;;;;;2123181;28;19949;-43
2022/09/02 01:14:56;;;;;;;;;;;;;;;;;;2123413;28;19924;-43
2022/09/02 01:15:57;;;;;;;;;;;;;;;;;;2123121;28;19957;-42
2022/09/02 01:16:59;;;;;;;;;;;;;;;;;;2123086;27;19968;-43
2022/09/02 01:17:59;;;;;;;;;;;;;;;;;;2123068;27;20011;-43
2022/09/02 01:19:00;;;;;;;;;;;;;;;;;;2123169;28;20386;-43
2022/09/02 01:20:01;;;;;;;;;;;;;;;;;;2123152;28;20490;-43
2022/09/02 01:21:02;;;;;;;;;;;;;;;;;;2123275;28;20244;-43
2022/09/02 01:22:03;;;;;;;;;;;;;;;;;;2123177;27;20017;-43
2022/09/02 01:23:04;;;;;;;;;;;;;;;;;;2123257;28;20277;-45
2022/09/02 01:24:05;;;;;;;;;;;;;;;;;;2123261;27;20273;-45
2022/09/02 01:25:06;;;;;;;;;;;;;;;;;;2131621;27;19923;-44
2022/09/02 01:26:06;;;;;;;;;;;;;;;;;;2131772;27;19923;-44
2022/09/02 01:27:07;;;;;;;;;;;;;;;;;;2131649;27;20407;-44
2022/09/02 01:28:08;;;;;;;;;;;;;;;;;;2131540;27;20395;-45
2022/09/02 01:29:09;;;;;;;;;;;;;;;;;;2131530;27;19923;-46
2022/09/02 01:30:10;;;;;;;;;;;;;;;;;;2131913;27;19931;-43
2022/09/02 01:31:11;;;;;;;;;;;;;;;;;;2131643;27;19929;-46
2022/09/02 01:32:12;;;;;;;;;;;;;;;;;;2131602;27;20372;-45
2022/09/02 01:33:13;;;;;;;;;;;;;;;;;;2131683;27;19923;-44
2022/09/02 01:34:13;;;;;;;;;;;;;;;;;;2131521;27;19924;-45
2022/09/02 01:35:15;;;;;;;;;;;;;;;;;;2131697;27;19923;-44
2022/09/02 01:36:15;;;;;;;;;;;;;;;;;;2131413;27;20347;-45
2022/09/02 01:37:16;;;;;;;;;;;;;;;;;;2131497;27;19929;-44
2022/09/02 01:38:17;;;;;;;;;;;;;;;;;;2131715;27;20043;-44
2022/09/02 01:39:18;;;;;;;;;;;;;;;;;;2131692;27;19923;-44
2022/09/02 01:40:19;;;;;;;;;;;;;;;;;;2131450;27;19923;-44
2022/09/02 01:41:20;;;;;;;;;;;;;;;;;;2131568;27;19995;-44
2022/09/02 01:42:20;;;;;;;;;;;;;;;;;;2131789;27;20018;-46
2022/09/02 01:43:21;;;;;;;;;;;;;;;;;;2131419;27;19930;-45
2022/09/02 01:44:25;;;;;;;;;;;;;;;;;;2131681;27;19926;-44
2022/09/02 01:45:27;;;;;;;;;;;;;;;;;;2131769;27;20002;-44
2022/09/02 01:46:28;;;;;;;;;;;;;;;;;;2131566;27;20009;-44
2022/09/02 01:47:28;;;;;;;;;;;;;;;;;;2131493;27;19923;-44
2022/09/02 01:48:29;;;;;;;;;;;;;;;;;;2131672;27;19924;-44
2022/09/02 01:49:30;;;;;;;;;;;;;;;;;;2131439;27;20485;-43
2022/09/02 01:50:31;;;;;;;;;;;;;;;;;;2131651;27;20056;-44
2022/09/02 01:51:32;;;;;;;;;;;;;;;;;;2131381;27;20374;-44
2022/09/02 01:52:33;;;;;;;;;;;;;;;;;;2131615;27;19931;-44
2022/09/02 01:53:34;;;;;;;;;;;;;;;;;;2131414;27;20463;-43
2022/09/02 01:54:35;;;;;;;;;;;;;;;;;;2131472;27;19927;-44
2022/09/02 01:55:36;;;;;;;;;;;;;;;;;;2131568;27;20021;-44
2022/09/02 01:56:37;;;;;;;;;;;;;;;;;;2131504;27;19962;-44
2022/09/02 01:57:37;;;;;;;;;;;;;;;;;;2131496;27;19927;-44
2022/09/02 01:58:38;;;;;;;;;;;;;;;;;;2131332;27;19929;-44
2022/09/02 01:59:39;;;;;;;;;;;;;;;;;;2131600;27;20011;-44
2022/09/02 02:00:40;;;;;;;;;;;;;;;;;;2131542;27;19963;-44
2022/09/02 02:01:41;;;;;;;;;;;;;;;;;;2131362;27;19923;-44
2022/09/02 02:02:42;;;;;;;;;;;;;;;;;;2131556;27;19963;-44
2022/09/02 02:03:43;;;;;;;;;;;;;;;;;;2131363;27;20276;-44
2022/09/02 02:04:44;;;;;;;;;;;;;;;;;;2131384;27;19929;-43
2022/09/02 02:05:45;;;;;;;;;;;;;;;;;;2131136;27;20013;-44
2022/09/02 02:06:47;;;;;;;;;;;;;;;;;;2131546;27;19927;-44
2022/09/02 02:07:47;;;;;;;;;;;;;;;;;;2131288;27;20049;-43
2022/09/02 02:08:48;;;;;;;;;;;;;;;;;;2131648;27;19962;-44
2022/09/02 02:09:49;;;;;;;;;;;;;;;;;;2131340;27;20399;-44
2022/09/02 02:10:50;;;;;;;;;;;;;;;;;;2131352;27;19923;-45
2022/09/02 02:11:51;;;;;;;;;;;;;;;;;;2127424;27;20442;-42
2022/09/02 02:12:52;;;;;;;;;;;;;;;;;;2131507;27;20017;-44
2022/09/02 02:13:53;;;;;;;;;;;;;;;;;;2131379;27;20404;-44
2022/09/02 02:14:54;;;;;;;;;;;;;;;;;;2131456;27;19923;-43
2022/09/02 02:15:55;;;;;;;;;;;;;;;;;;2131442;27;20368;-44
2022/09/02 02:16:56;;;;;;;;;;;;;;;;;;2131244;27;19923;-43
2022/09/02 02:17:57;;;;;;;;;;;;;;;;;;2131558;27;19956;-43
2022/09/02 02:18:58;;;;;;;;;;;;;;;;;;2131438;27;19936;-43
2022/09/02 02:19:58;;;;;;;;;;;;;;;;;;2131573;27;20075;-42
2022/09/02 02:20:59;;;;;;;;;;;;;;;;;;2131371;27;20407;-43
2022/09/02 02:22:00;;;;;;;;;;;;;;;;;;2131397;27;19944;-45
2022/09/02 02:23:01;;;;;;;;;;;;;;;;;;2131363;27;19923;-43
2022/09/02 02:24:02;;;;;;;;;;;;;;;;;;2131587;27;19954;-44
2022/09/02 02:25:03;;;;;;;;;;;;;;;;;;2131479;27;19923;-44
2022/09/02 02:26:04;;;;;;;;;;;;;;;;;;2131242;27;20408;-45
2022/09/02 02:27:05;;;;;;;;;;;;;;;;;;2131373;27;19984;-44
2022/09/02 02:28:05;;;;;;;;;;;;;;;;;;2131338;27;19927;-44
2022/09/02 02:29:06;;;;;;;;;;;;;;;;;;2131569;27;19923;-44
2022/09/02 02:30:07;;;;;;;;;;;;;;;;;;2132626;27;20324;-44
2022/09/02 02:31:09;;;;;;;;;;;;;;;;;;2132798;27;19923;-44
2022/09/02 02:32:10;;;;;;;;;;;;;;;;;;2132793;27;19972;-44
2022/09/02 02:33:11;;;;;;;;;;;;;;;;;;2132688;27;20010;-45
2022/09/02 02:34:12;;;;;;;;;;;;;;;;;;2132864;27;20018;-45
2022/09/02 02:35:13;;;;;;;;;;;;;;;;;;2132796;27;19923;-44
2022/09/02 02:36:13;;;;;;;;;;;;;;;;;;2132664;27;19923;-44
2022/09/02 02:37:14;;;;;;;;;;;;;;;;;;2132670;27;19923;-44
2022/09/02 02:38:15;;;;;;;;;;;;;;;;;;2132630;27;20006;-43
2022/09/02 02:39:16;;;;;;;;;;;;;;;;;;2132676;27;19923;-44
2022/09/02 02:40:17;;;;;;;;;;;;;;;;;;2133096;27;19970;-43
2022/09/02 02:41:19;;;;;;;;;;;;;;;;;;2132548;27;19934;-43
2022/09/02 02:42:20;;;;;;;;;;;;;;;;;;2132678;27;20446;-44
2022/09/02 02:43:21;;;;;;;;;;;;;;;;;;2132744;27;20035;-43
2022/09/02 02:44:22;;;;;;;;;;;;;;;;;;2132557;27;20395;-43
2022/09/02 02:45:23;;;;;;;;;;;;;;;;;;2132704;27;20009;-43
2022/09/02 02:46:25;;;;;;;;;;;;;;;;;;2132728;27;20055;-43
2022/09/02 02:47:26;;;;;;;;;;;;;;;;;;2132660;27;20334;-43
2022/09/02 02:48:27;;;;;;;;;;;;;;;;;;2132631;27;20013;-43
2022/09/02 02:49:28;;;;;;;;;;;;;;;;;;2132780;27;19930;-43
2022/09/02 02:50:29;;;;;;;;;;;;;;;;;;2132685;27;20014;-43
2022/09/02 02:51:30;;;;;;;;;;;;;;;;;;2132813;27;19923;-43
2022/09/02 02:52:31;;;;;;;;;;;;;;;;;;2132680;27;19982;-43
2022/09/02 02:53:32;;;;;;;;;;;;;;;;;;2132656;27;19923;-44
2022/09/02 02:54:32;;;;;;;;;;;;;;;;;;2132689;27;20017;-43
2022/09/02 02:55:35;;;;;;;;;;;;;;;;;;2132768;27;20149;-43
2022/09/02 02:56:36;;;;;;;;;;;;;;;;;;2132504;27;19971;-42
2022/09/02 02:57:38;;;;;;;;;;;;;;;;;;2132643;27;20013;-42
2022/09/02 02:58:38;;;;;;;;;;;;;;;;;;2132759;27;19923;-42
2022/09/02 02:59:39;;;;;;;;;;;;;;;;;;2128707;27;19923;-42
2022/09/02 03:00:40;;;;;;;;;;;;;;;;;;2124054;28;20018;-42
2022/09/02 03:01:41;;;;;;;;;;;;;;;;;;2128112;27;20014;-43
2022/09/02 03:02:43;;;;;;;;;;;;;;;;;;2132550;27;19966;-44
2022/09/02 03:03:44;;;;;;;;;;;;;;;;;;2132633;27;19923;-44
2022/09/02 03:04:44;;;;;;;;;;;;;;;;;;2132564;27;19945;-44
2022/09/02 03:05:46;;;;;;;;;;;;;;;;;;2132446;27;19923;-44
2022/09/02 03:06:47;;;;;;;;;;;;;;;;;;2132782;27;20010;-44
2022/09/02 03:07:48;;;;;;;;;;;;;;;;;;2132167;27;20504;-43
2022/09/02 03:08:48;;;;;;;;;;;;;;;;;;2132393;27;19923;-44
2022/09/02 03:09:49;;;;;;;;;;;;;;;;;;2132578;27;19962;-44
2022/09/02 03:10:52;;;;;;;;;;;;;;;;;;2132674;27;19930;-45
2022/09/02 03:11:53;;;;;;;;;;;;;;;;;;2132172;27;20443;-43
2022/09/02 03:12:54;;;;;;;;;;;;;;;;;;2132508;27;19923;-44
2022/09/02 03:13:55;;;;;;;;;;;;;;;;;;2132631;27;20014;-44
2022/09/02 03:14:56;;;;;;;;;;;;;;;;;;2132541;27;20002;-44
2022/09/02 03:15:57;;;;;;;;;;;;;;;;;;2132662;27;20018;-44
2022/09/02 03:16:58;;;;;;;;;;;;;;;;;;2132512;27;19924;-43
2022/09/02 03:17:59;;;;;;;;;;;;;;;;;;2132567;27;19971;-43
2022/09/02 03:19:00;;;;;;;;;;;;;;;;;;2132582;27;19977;-44
2022/09/02 03:20:01;;;;;;;;;;;;;;;;;;2132447;27;20394;-43
2022/09/02 03:21:02;;;;;;;;;;;;;;;;;;2132490;27;19931;-43
2022/09/02 03:22:03;;;;;;;;;;;;;;;;;;2132622;27;20308;-44
2022/09/02 03:23:04;;;;;;;;;;;;;;;;;;2132432;27;20018;-44
2022/09/02 03:24:05;;;;;;;;;;;;;;;;;;2132605;27;20334;-44
2022/09/02 03:25:06;;;;;;;;;;;;;;;;;;2132555;27;20363;-44
2022/09/02 03:26:07;;;;;;;;;;;;;;;;;;2132386;27;19958;-44
2022/09/02 03:27:08;;;;;;;;;;;;;;;;;;2132379;27;20101;-44
2022/09/02 03:28:09;;;;;;;;;;;;;;;;;;2132445;27;20436;-44
2022/09/02 03:29:10;;;;;;;;;;;;;;;;;;2132384;27;20011;-44
2022/09/02 03:30:11;;;;;;;;;;;;;;;;;;2132459;27;19976;-44
2022/09/02 03:31:11;;;;;;;;;;;;;;;;;;2132266;27;19922;-44
2022/09/02 03:32:13;;;;;;;;;;;;;;;;;;2132470;27;19930;-43
2022/09/02 03:33:15;;;;;;;;;;;;;;;;;;2132186;27;19923;-44
2022/09/02 03:34:16;;;;;;;;;;;;;;;;;;2132457;27;19929;-44
2022/09/02 03:35:17;;;;;;;;;;;;;;;;;;2132384;27;20017;-44
2022/09/02 03:36:18;;;;;;;;;;;;;;;;;;2132281;27;20412;-44
2022/09/02 03:37:19;;;;;;;;;;;;;;;;;;2131957;27;20379;-44
2022/09/02 03:38:20;;;;;;;;;;;;;;;;;;2132425;27;19923;-44
2022/09/02 03:39:21;;;;;;;;;;;;;;;;;;2132343;27;20018;-46
2022/09/02 03:40:22;;;;;;;;;;;;;;;;;;2132243;27;19923;-44
2022/09/02 03:41:23;;;;;;;;;;;;;;;;;;2131242;27;19927;-45
2022/09/02 03:42:24;;;;;;;;;;;;;;;;;;2132304;27;19930;-44
2022/09/02 03:43:24;;;;;;;;;;;;;;;;;;2132417;27;20013;-44
2022/09/02 03:44:26;;;;;;;;;;;;;;;;;;2132258;27;19946;-45
2022/09/02 03:45:26;;;;;;;;;;;;;;;;;;2132182;27;20013;-44
2022/09/02 03:46:27;;;;;;;;;;;;;;;;;;2132174;27;19927;-44
2022/09/02 03:47:28;;;;;;;;;;;;;;;;;;2132454;27;19930;-44
2022/09/02 03:48:30;;;;;;;;;;;;;;;;;;2132204;27;20052;-45
2022/09/02 03:49:31;;;;;;;;;;;;;;;;;;2132403;27;19923;-45
2022/09/02 03:50:32;;;;;;;;;;;;;;;;;;2132435;27;19923;-45
2022/09/02 03:51:33;;;;;;;;;;;;;;;;;;2132088;27;20067;-44
2022/09/02 03:52:34;;;;;;;;;;;;;;;;;;2132211;27;19976;-44
2022/09/02 03:53:34;;;;;;;;;;;;;;;;;;2132037;27;19970;-44
2022/09/02 03:54:35;;;;;;;;;;;;;;;;;;2132340;27;20125;-45
2022/09/02 03:55:36;;;;;;;;;;;;;;;;;;2132162;27;20009;-45
2022/09/02 03:56:37;;;;;;;;;;;;;;;;;;2132574;27;20368;-44
2022/09/02 03:57:38;;;;;;;;;;;;;;;;;;2132070;27;19923;-44
2022/09/02 03:58:39;;;;;;;;;;;;;;;;;;2132277;27;19930;-44
2022/09/02 03:59:40;;;;;;;;;;;;;;;;;;2132156;27;19923;-44
2022/09/02 04:00:41;;;;;;;;;;;;;;;;;;2132467;27;19937;-45
2022/09/02 04:01:42;;;;;;;;;;;;;;;;;;2132199;27;19923;-47
2022/09/02 04:02:43;;;;;;;;;;;;;;;;;;2132098;27;19923;-46
2022/09/02 04:03:44;;;;;;;;;;;;;;;;;;2132093;27;20299;-46
2022/09/02 04:04:45;;;;;;;;;;;;;;;;;;2132077;27;20015;-47
2022/09/02 04:05:46;;;;;;;;;;;;;;;;;;2132276;27;19930;-46
2022/09/02 04:06:47;;;;;;;;;;;;;;;;;;2132118;27;20287;-45
2022/09/02 04:07:50;;;;;;;;;;;;;;;;;;2132265;27;19933;-47
2022/09/02 04:08:51;;;;;;;;;;;;;;;;;;2132034;27;20022;-47
2022/09/02 04:09:51;;;;;;;;;;;;;;;;;;2132381;27;19927;-46
2022/09/02 04:10:54;;;;;;;;;;;;;;;;;;2132178;27;19922;-46
2022/09/02 04:11:55;;;;;;;;;;;;;;;;;;2124025;27;20454;-46
2022/09/02 04:12:56;;;;;;;;;;;;;;;;;;2123766;28;20013;-42
2022/09/02 04:13:57;;;;;;;;;;;;;;;;;;2123409;28;19930;-43
2022/09/02 04:14:58;;;;;;;;;;;;;;;;;;2123466;28;20396;-43
2022/09/02 04:15:58;;;;;;;;;;;;;;;;;;2123522;28;20002;-43
2022/09/02 04:17:02;;;;;;;;;;;;;;;;;;2123507;27;19930;-43
2022/09/02 04:18:03;;;;;;;;;;;;;;;;;;2123605;28;20010;-43
2022/09/02 04:19:04;;;;;;;;;;;;;;;;;;2123595;28;19928;-42
2022/09/02 04:20:05;;;;;;;;;;;;;;;;;;2123423;28;20545;-44
2022/09/02 04:21:06;;;;;;;;;;;;;;;;;;2123515;28;19984;-43
2022/09/02 04:22:07;;;;;;;;;;;;;;;;;;2123398;27;19985;-44
2022/09/02 04:23:08;;;;;;;;;;;;;;;;;;2128873;27;19923;-47
2022/09/02 04:24:09;;;;;;;;;;;;;;;;;;2132038;27;20014;-46
2022/09/02 04:25:10;;;;;;;;;;;;;;;;;;2132225;27;20309;-47
2022/09/02 04:26:10;;;;;;;;;;;;;;;;;;2132009;27;20002;-47
2022/09/02 04:27:11;;;;;;;;;;;;;;;;;;2131899;27;19923;-45
2022/09/02 04:28:12;;;;;;;;;;;;;;;;;;2132216;27;19968;-46
2022/09/02 04:29:13;;;;;;;;;;;;;;;;;;2131967;27;19983;-45
2022/09/02 04:30:15;;;;;;;;;;;;;;;;;;2132109;27;19930;-46
2022/09/02 04:31:17;;;;;;;;;;;;;;;;;;2131910;27;19975;-47
2022/09/02 04:32:18;;;;;;;;;;;;;;;;;;2132175;27;20078;-46
2022/09/02 04:33:19;;;;;;;;;;;;;;;;;;2131891;27;19981;-50
2022/09/02 04:34:20;;;;;;;;;;;;;;;;;;2132192;27;20002;-47
2022/09/02 04:35:21;;;;;;;;;;;;;;;;;;2132284;27;19969;-44
2022/09/02 04:36:22;;;;;;;;;;;;;;;;;;2131736;27;19985;-44
2022/09/02 04:37:23;;;;;;;;;;;;;;;;;;2132085;27;19927;-46
2022/09/02 04:38:23;;;;;;;;;;;;;;;;;;2131968;27;20018;-45
2022/09/02 04:39:24;;;;;;;;;;;;;;;;;;2131802;27;20305;-44
2022/09/02 04:40:25;;;;;;;;;;;;;;;;;;2132010;27;19930;-44
2022/09/02 04:41:27;;;;;;;;;;;;;;;;;;2131928;27;19975;-44
2022/09/02 04:42:27;;;;;;;;;;;;;;;;;;2132137;27;20014;-44
2022/09/02 04:43:28;;;;;;;;;;;;;;;;;;2132000;27;19923;-45
2022/09/02 04:44:29;;;;;;;;;;;;;;;;;;2131833;27;20466;-43
2022/09/02 04:45:30;;;;;;;;;;;;;;;;;;2131835;27;20142;-43
2022/09/02 04:46:31;;;;;;;;;;;;;;;;;;2131916;27;19969;-46
2022/09/02 04:47:35;;;;;;;;;;;;;;;;;;2131801;27;20010;-44
2022/09/02 04:48:36;;;;;;;;;;;;;;;;;;2131744;27;20575;-44
2022/09/02 04:49:37;;;;;;;;;;;;;;;;;;2132247;27;20016;-46
2022/09/02 04:50:37;;;;;;;;;;;;;;;;;;2131999;27;19934;-47
2022/09/02 04:51:38;;;;;;;;;;;;;;;;;;2131900;27;20389;-46
2022/09/02 04:52:39;;;;;;;;;;;;;;;;;;2123603;27;20014;-44
2022/09/02 04:53:40;;;;;;;;;;;;;;;;;;2124020;27;19931;-46
2022/09/02 04:54:41;;;;;;;;;;;;;;;;;;2123099;28;19931;-47
2022/09/02 04:55:43;;;;;;;;;;;;;;;;;;2123403;28;20014;-47
2022/09/02 04:56:44;;;;;;;;;;;;;;;;;;2123121;27;20065;-44
2022/09/02 04:57:45;;;;;;;;;;;;;;;;;;2128971;27;20428;-44
2022/09/02 04:58:45;;;;;;;;;;;;;;;;;;2131842;27;19923;-43
2022/09/02 04:59:46;;;;;;;;;;;;;;;;;;2131749;27;19927;-44
2022/09/02 05:00:47;;;;;;;;;;;;;;;;;;2131841;27;20455;-44
2022/09/02 05:01:49;;;;;;;;;;;;;;;;;;2131781;27;19927;-44
2022/09/02 05:02:49;;;;;;;;;;;;;;;;;;2131908;27;20381;-49
2022/09/02 05:03:51;;;;;;;;;;;;;;;;;;2132054;27;19923;-44
2022/09/02 05:04:51;;;;;;;;;;;;;;;;;;2131851;27;20014;-43
2022/09/02 05:05:52;;;;;;;;;;;;;;;;;;2131636;27;19923;-44
2022/09/02 05:06:53;;;;;;;;;;;;;;;;;;2131802;27;20011;-47
2022/09/02 05:07:55;;;;;;;;;;;;;;;;;;2131609;27;19923;-46
2022/09/02 05:08:56;;;;;;;;;;;;;;;;;;2131738;27;20018;-47
2022/09/02 05:09:57;;;;;;;;;;;;;;;;;;2131917;27;19923;-47
2022/09/02 05:10:58;;;;;;;;;;;;;;;;;;2131691;27;19980;-48
2022/09/02 05:12:03;;;;;;;;;;;;;;;;;;2123036;27;19931;-48
2022/09/02 05:13:03;;;;;;;;;;;;;;;;;;2123483;28;19970;-49
2022/09/02 05:14:05;;;;;;;;;;;;;;;;;;2123355;28;19969;-49
2022/09/02 05:15:07;;;;;;;;;;;;;;;;;;2123407;28;19930;-44
2022/09/02 05:16:08;;;;;;;;;;;;;;;;;;2123274;28;19991;-46
2022/09/02 05:17:09;;;;;;;;;;;;;;;;;;2122929;27;20390;-44
2022/09/02 05:18:10;;;;;;;;;;;;;;;;;;2123182;28;19924;-45
2022/09/02 05:19:12;;;;;;;;;;;;;;;;;;2123039;28;20002;-45
2022/09/02 05:20:15;;;;;;;;;;;;;;;;;;2123189;28;19923;-44
2022/09/02 05:21:16;;;;;;;;;;;;;;;;;;2123044;27;19923;-46
2022/09/02 05:22:17;;;;;;;;;;;;;;;;;;2123391;28;19923;-47
2022/09/02 05:23:18;;;;;;;;;;;;;;;;;;2123143;28;19931;-48
2022/09/02 05:24:19;;;;;;;;;;;;;;;;;;2123077;28;19972;-47
2022/09/02 05:25:24;;;;;;;;;;;;;;;;;;2123084;28;19927;-48
2022/09/02 05:26:25;;;;;;;;;;;;;;;;;;2123150;27;20017;-50
2022/09/02 05:27:25;;;;;;;;;;;;;;;;;;2123195;28;19987;-46
2022/09/02 05:28:27;;;;;;;;;;;;;;;;;;2122982;28;20013;-47
2022/09/02 05:29:28;;;;;;;;;;;;;;;;;;2123410;28;20421;-44
2022/09/02 05:30:29;;;;;;;;;;;;;;;;;;2123007;28;19937;-44
2022/09/02 05:31:30;;;;;;;;;;;;;;;;;;2123365;27;19923;-44
2022/09/02 05:32:31;;;;;;;;;;;;;;;;;;2123021;28;19923;-44
2022/09/02 05:33:37;;;;;;;;;;;;;;;;;;2123425;28;19923;-44
2022/09/02 05:34:38;;;;;;;;;;;;;;;;;;2122977;28;20022;-45
2022/09/02 05:35:39;;;;;;;;;;;;;;;;;;2122945;28;20030;-45
2022/09/02 05:36:40;;;;;;;;;;;;;;;;;;2123347;27;19930;-44
2022/09/02 05:37:41;;;;;;;;;;;;;;;;;;2122838;28;20009;-45
2022/09/02 05:38:42;;;;;;;;;;;;;;;;;;2123410;28;19957;-47
2022/09/02 05:39:43;;;;;;;;;;;;;;;;;;2123123;28;20052;-47
2022/09/02 05:40:44;;;;;;;;;;;;;;;;;;2122920;28;20453;-47
2022/09/02 05:41:44;;;;;;;;;;;;;;;;;;2122923;27;19924;-47
2022/09/02 05:42:45;;;;;;;;;;;;;;;;;;2123309;28;19930;-44
2022/09/02 05:43:48;;;;;;;;;;;;;;;;;;2122877;28;20014;-45
2022/09/02 05:44:49;;;;;;;;;;;;;;;;;;2123288;28;19923;-44
2022/09/02 05:45:50;;;;;;;;;;;;;;;;;;2123548;28;20277;-46
2022/09/02 05:46:51;;;;;;;;;;;;;;;;;;2123142;27;20001;-47
2022/09/02 05:47:52;;;;;;;;;;;;;;;;;;2122950;28;19923;-47
2022/09/02 05:49:06;;;;;;;;;;;;;;;;;;2122955;27;19930;-47
2022/09/02 05:50:07;;;;;;;;;;;;;;;;;;2124304;27;19938;-47
2022/09/02 05:51:08;;;;;;;;;;;;;;;;;;2131459;27;20273;-47
2022/09/02 05:52:10;;;;;;;;;;;;;;;;;;2131440;27;19967;-46
2022/09/02 05:53:11;;;;;;;;;;;;;;;;;;2131749;27;20010;-47
2022/09/02 05:54:14;;;;;;;;;;;;;;;;;;2131466;27;20447;-47
2022/09/02 05:55:15;;;;;;;;;;;;;;;;;;2131686;27;19930;-46
2022/09/02 05:56:16;;;;;;;;;;;;;;;;;;2131556;27;20284;-47
2022/09/02 05:57:17;;;;;;;;;;;;;;;;;;2131463;27;19923;-47
2022/09/02 05:58:18;;;;;;;;;;;;;;;;;;2131773;27;20408;-47
2022/09/02 05:59:19;;;;;;;;;;;;;;;;;;2131455;27;19924;-49
2022/09/02 06:00:20;;;;;;;;;;;;;;;;;;2131610;27;20013;-47
2022/09/02 06:01:21;;;;;;;;;;;;;;;;;;2131628;27;19923;-45
2022/09/02 06:02:22;;;;;;;;;;;;;;;;;;2131413;27;20336;-44
2022/09/02 06:03:23;;;;;;;;;;;;;;;;;;2131409;27;19971;-44
2022/09/02 06:04:24;;;;;;;;;;;;;;;;;;2131699;27;20280;-44
2022/09/02 06:05:26;;;;;;;;;;;;;;;;;;2132963;27;19923;-44
2022/09/02 06:06:26;;;;;;;;;;;;;;;;;;2133344;27;20007;-48
2022/09/02 06:07:28;;;;;;;;;;;;;;;;;;2133049;27;20009;-47
2022/09/02 06:08:29;;;;;;;;;;;;;;;;;;2132866;27;20014;-47
2022/09/02 06:09:30;;;;;;;;;;;;;;;;;;2133016;27;19927;-47
2022/09/02 06:10:31;;;;;;;;;;;;;;;;;;2133108;27;20279;-48
2022/09/02 06:11:32;;;;;;;;;;;;;;;;;;2132522;27;20018;-48
2022/09/02 06:12:33;;;;;;;;;;;;;;;;;;2133029;27;20021;-48
2022/09/02 06:13:34;;;;;;;;;;;;;;;;;;2133481;27;19923;-44
2022/09/02 06:14:36;;;;;;;;;;;;;;;;;;2133019;27;20025;-45
2022/09/02 06:15:38;;;;;;;;;;;;;;;;;;2132880;27;20014;-44
2022/09/02 06:16:39;;;;;;;;;;;;;;;;;;2132624;27;19938;-48
2022/09/02 06:17:40;;;;;;;;;;;;;;;;;;2132738;27;20366;-48
2022/09/02 06:18:41;;;;;;;;;;;;;;;;;;2132990;27;19923;-49
2022/09/02 06:19:42;;;;;;;;;;;;;;;;;;2133017;27;20009;-44
2022/09/02 06:20:43;;;;;;;;;;;;;;;;;;2133252;27;20006;-50
2022/09/02 06:21:44;;;;;;;;;;;;;;;;;;2132840;27;20431;-48
2022/09/02 06:22:45;;;;;;;;;;;;;;;;;;2133209;27;19972;-44
2022/09/02 06:23:46;;;;;;;;;;;;;;;;;;2132706;27;19923;-45
2022/09/02 06:24:47;;;;;;;;;;;;;;;;;;2132989;27;19926;-45
2022/09/02 06:25:48;;;;;;;;;;;;;;;;;;2133018;27;20504;-48
2022/09/02 06:26:48;;;;;;;;;;;;;;;;;;2132664;27;20006;-48
2022/09/02 06:27:49;;;;;;;;;;;;;;;;;;2132957;27;19923;-48
2022/09/02 06:28:50;;;;;;;;;;;;;;;;;;2132913;27;20375;-50
2022/09/02 06:29:51;;;;;;;;;;;;;;;;;;2132904;27;19958;-50
2022/09/02 06:30:52;;;;;;;;;;;;;;;;;;2132829;27;19923;-45
2022/09/02 06:31:53;;;;;;;;;;;;;;;;;;2133054;27;19926;-42
2022/09/02 06:32:54;;;;;;;;;;;;;;;;;;2132564;27;19927;-42
2022/09/02 06:33:55;;;;;;;;;;;;;;;;;;2132636;27;20493;-43
2022/09/02 06:34:56;;;;;;;;;;;;;;;;;;2133107;27;19940;-46
2022/09/02 06:35:57;;;;;;;;;;;;;;;;;;2132817;27;20327;-42
2022/09/02 06:36:58;;;;;;;;;;;;;;;;;;2132668;27;19934;-44
2022/09/02 06:37:59;;;;;;;;;;;;;;;;;;2133071;27;19923;-46
2022/09/02 06:39:00;;;;;;;;;;;;;;;;;;2132947;27;19975;-45
2022/09/02 06:40:01;;;;;;;;;;;;;;;;;;2132696;27;19923;-43
2022/09/02 06:41:02;;;;;;;;;;;;;;;;;;2133078;27;19923;-46
2022/09/02 06:42:03;;;;;;;;;;;;;;;;;;2132421;27;19975;-49
2022/09/02 06:43:03;;;;;;;;;;;;;;;;;;2132845;27;19980;-47
2022/09/02 06:44:04;;;;;;;;;;;;;;;;;;2132977;27;19984;-43
2022/09/02 06:45:07;;;;;;;;;;;;;;;;;;2132887;27;20368;-43
2022/09/02 06:46:08;;;;;;;;;;;;;;;;;;2132641;27;19927;-43
2022/09/02 06:47:09;;;;;;;;;;;;;;;;;;2132547;27;20364;-47
2022/09/02 06:48:10;;;;;;;;;;;;;;;;;;2132576;27;19923;-47
2022/09/02 06:49:10;;;;;;;;;;;;;;;;;;2132657;27;20014;-48
2022/09/02 06:50:11;;;;;;;;;;;;;;;;;;2132799;27;20006;-48
2022/09/02 06:51:12;;;;;;;;;;;;;;;;;;2132542;27;19923;-48
2022/09/02 06:52:13;;;;;;;;;;;;;;;;;;2132833;27;20363;-47
2022/09/02 06:53:16;;;;;;;;;;;;;;;;;;2132723;27;19929;-48
2022/09/02 06:54:17;;;;;;;;;;;;;;;;;;2132631;27;20018;-47
2022/09/02 06:55:18;;;;;;;;;;;;;;;;;;2132619;27;20336;-48
2022/09/02 06:56:19;;;;;;;;;;;;;;;;;;2132517;27;19975;-48
2022/09/02 06:57:20;;;;;;;;;;;;;;;;;;2132697;27;19968;-48